sensor_id;sensor_type;location;lat;lon;timestamp;pressure;altitude;pressure_sealevel;temperature;humidity
77311;BME280;66371;52.714;5.074;2023-04-24T14:22:09;100800.75;;;9.62;73.95
77311;BME280;66371;52.714;5.074;2023-04-24T14:24:35;100818.56;;;9.62;74.93
77311;BME280;66371;52.714;5.074;2023-04-24T14:27:01;100795.16;;;9.73;74.56
77311;BME280;66371;52.714;5.074;2023-04-24T14:29:26;100812.06;;;9.82;73.35
77311;BME280;66371;52.714;5.074;2023-04-24T14:31:52;100795.56;;;9.61;73.24
77311;BME280;66371;52.714;5.074;2023-04-24T14:34:17;100818.66;;;9.70;73.62
77311;BME280;66371;52.714;5.074;2023-04-24T14:36:43;100819.66;;;9.51;74.79
77311;BME280;66371;52.714;5.074;2023-04-24T14:39:09;100822.25;;;9.43;75.18
77311;BME280;66371;52.714;5.074;2023-04-24T14:41:35;100814.94;;;9.45;76.06
77311;BME280;66371;52.714;5.074;2023-04-24T14:44:03;100837.28;;;9.44;75.75
77311;BME280;66371;52.714;5.074;2023-04-24T14:46:29;100820.34;;;9.36;76.18
77311;BME280;66371;52.714;5.074;2023-04-24T14:49:15;100822.34;;;9.34;77.51
77311;BME280;66371;52.714;5.074;2023-04-24T14:51:40;100819.13;;;9.30;77.96
77311;BME280;66371;52.714;5.074;2023-04-24T14:54:06;100817.94;;;9.25;77.81
77311;BME280;66371;52.714;5.074;2023-04-24T14:56:32;100832.09;;;9.08;78.11
77311;BME280;66371;52.714;5.074;2023-04-24T14:58:57;100832.09;;;9.08;79.07
77311;BME280;66371;52.714;5.074;2023-04-24T15:01:22;100838.84;;;9.02;78.60
77311;BME280;66371;52.714;5.074;2023-04-24T15:03:49;100820.41;;;8.91;78.66
77311;BME280;66371;52.714;5.074;2023-04-24T15:06:15;100849.75;;;9.09;80.20
77311;BME280;66371;52.714;5.074;2023-04-24T15:08:40;100839.44;;;8.96;80.92
77311;BME280;66371;52.714;5.074;2023-04-24T15:11:06;100825.72;;;8.64;81.23
77311;BME280;66371;52.714;5.074;2023-04-24T15:13:31;100855.97;;;8.82;81.36
77311;BME280;66371;52.714;5.074;2023-04-24T15:15:57;100841.06;;;9.07;81.21
77311;BME280;66371;52.714;5.074;2023-04-24T15:18:22;100849.41;;;9.21;80.86
77311;BME280;66371;52.714;5.074;2023-04-24T15:20:48;100850.31;;;9.12;81.17
77311;BME280;66371;52.714;5.074;2023-04-24T15:23:13;100843.72;;;8.89;81.26
77311;BME280;66371;52.714;5.074;2023-04-24T15:25:38;100849.28;;;8.68;81.88
77311;BME280;66371;52.714;5.074;2023-04-24T15:28:05;100842.53;;;8.47;85.02
77311;BME280;66371;52.714;5.074;2023-04-24T15:30:31;100852.03;;;8.49;85.77
77311;BME280;66371;52.714;5.074;2023-04-24T15:32:56;100851.19;;;8.49;84.81
77311;BME280;66371;52.714;5.074;2023-04-24T15:35:22;100856.66;;;8.47;84.76
77311;BME280;66371;52.714;5.074;2023-04-24T15:37:48;100854.25;;;8.54;84.93
77311;BME280;66371;52.714;5.074;2023-04-24T15:40:14;100830.16;;;8.46;85.23
77311;BME280;66371;52.714;5.074;2023-04-24T15:42:42;100865.56;;;8.65;84.23
77311;BME280;66371;52.714;5.074;2023-04-24T15:45:08;100866.00;;;8.61;83.75
77311;BME280;66371;52.714;5.074;2023-04-24T15:47:34;100859.94;;;8.68;81.72
77311;BME280;66371;52.714;5.074;2023-04-24T15:50:00;100851.81;;;8.70;82.97
77311;BME280;66371;52.714;5.074;2023-04-24T15:52:25;100868.53;;;8.62;82.47
77311;BME280;66371;52.714;5.074;2023-04-24T15:54:51;100868.16;;;8.48;83.31
77311;BME280;66371;52.714;5.074;2023-04-24T15:57:16;100873.38;;;8.40;85.14
77311;BME280;66371;52.714;5.074;2023-04-24T15:59:42;100869.66;;;8.23;85.85
77311;BME280;66371;52.714;5.074;2023-04-24T16:02:09;100878.19;;;8.27;87.28
77311;BME280;66371;52.714;5.074;2023-04-24T16:04:35;100883.53;;;8.27;85.81
77311;BME280;66371;52.714;5.074;2023-04-24T16:07:01;100887.72;;;8.29;85.70
77311;BME280;66371;52.714;5.074;2023-04-24T16:09:27;100867.97;;;8.13;83.81
77311;BME280;66371;52.714;5.074;2023-04-24T16:11:52;100870.78;;;8.11;83.65
77311;BME280;66371;52.714;5.074;2023-04-24T16:14:18;100886.59;;;8.13;85.01
77311;BME280;66371;52.714;5.074;2023-04-24T16:16:43;100878.81;;;7.92;87.04
77311;BME280;66371;52.714;5.074;2023-04-24T16:19:09;100897.03;;;7.87;90.77
77311;BME280;66371;52.714;5.074;2023-04-24T16:21:34;100890.88;;;7.68;89.96
77311;BME280;66371;52.714;5.074;2023-04-24T16:24:00;100895.06;;;7.70;89.65
77311;BME280;66371;52.714;5.074;2023-04-24T16:26:25;100911.59;;;7.74;90.38
77311;BME280;66371;52.714;5.074;2023-04-24T16:28:50;100903.19;;;7.78;90.24
77311;BME280;66371;52.714;5.074;2023-04-24T16:31:16;100908.47;;;7.88;90.13
77311;BME280;66371;52.714;5.074;2023-04-24T16:33:42;100895.59;;;7.93;90.65
77311;BME280;66371;52.714;5.074;2023-04-24T16:36:07;100892.50;;;7.88;90.05
77311;BME280;66371;52.714;5.074;2023-04-24T16:38:37;100905.28;;;7.94;90.70
77311;BME280;66371;52.714;5.074;2023-04-24T16:41:02;100908.91;;;8.02;90.59
77311;BME280;66371;52.714;5.074;2023-04-24T16:43:28;100900.06;;;8.02;89.95
77311;BME280;66371;52.714;5.074;2023-04-24T16:45:54;100903.28;;;8.05;89.05
77311;BME280;66371;52.714;5.074;2023-04-24T16:48:19;100908.47;;;8.16;90.31
77311;BME280;66371;52.714;5.074;2023-04-24T16:50:45;100909.63;;;8.04;89.59
77311;BME280;66371;52.714;5.074;2023-04-24T16:53:11;100920.84;;;7.98;88.82
77311;BME280;66371;52.714;5.074;2023-04-24T16:55:37;100918.47;;;7.95;90.07
77311;BME280;66371;52.714;5.074;2023-04-24T16:58:03;100913.25;;;8.03;89.65
77311;BME280;66371;52.714;5.074;2023-04-24T17:00:28;100908.47;;;8.07;89.82
77311;BME280;66371;52.714;5.074;2023-04-24T17:02:54;100918.00;;;8.09;89.79
77311;BME280;66371;52.714;5.074;2023-04-24T17:05:19;100916.03;;;8.11;88.92
77311;BME280;66371;52.714;5.074;2023-04-24T17:07:48;100920.66;;;8.19;87.50
77311;BME280;66371;52.714;5.074;2023-04-24T17:10:14;100911.00;;;8.18;88.35
77311;BME280;66371;52.714;5.074;2023-04-24T17:12:40;100930.06;;;8.13;88.95
77311;BME280;66371;52.714;5.074;2023-04-24T17:15:05;100928.94;;;8.06;89.22
77311;BME280;66371;52.714;5.074;2023-04-24T17:17:31;100926.16;;;7.98;89.20
77311;BME280;66371;52.714;5.074;2023-04-24T17:19:56;100927.69;;;8.01;90.27
77311;BME280;66371;52.714;5.074;2023-04-24T17:22:21;100922.22;;;7.93;91.04
77311;BME280;66371;52.714;5.074;2023-04-24T17:24:47;100931.47;;;7.89;91.52
77311;BME280;66371;52.714;5.074;2023-04-24T17:27:12;100935.38;;;7.85;91.18
77311;BME280;66371;52.714;5.074;2023-04-24T17:29:38;100933.28;;;7.79;90.43
77311;BME280;66371;52.714;5.074;2023-04-24T17:32:04;100928.94;;;7.78;90.77
77311;BME280;66371;52.714;5.074;2023-04-24T17:34:36;100933.28;;;7.79;91.99
77311;BME280;66371;52.714;5.074;2023-04-24T17:37:01;100933.28;;;7.79;92.03
77311;BME280;66371;52.714;5.074;2023-04-24T17:39:28;100934.28;;;7.78;91.93
77311;BME280;66371;52.714;5.074;2023-04-24T17:41:53;100930.09;;;7.75;92.37
77311;BME280;66371;52.714;5.074;2023-04-24T17:44:19;100943.94;;;7.79;92.17
77311;BME280;66371;52.714;5.074;2023-04-24T17:46:45;100942.97;;;7.80;92.49
77311;BME280;66371;52.714;5.074;2023-04-24T17:49:10;100946.19;;;7.74;92.69
77311;BME280;66371;52.714;5.074;2023-04-24T17:51:36;100941.53;;;7.76;92.13
77311;BME280;66371;52.714;5.074;2023-04-24T17:54:01;100944.06;;;7.77;93.09
77311;BME280;66371;52.714;5.074;2023-04-24T17:56:27;100942.13;;;7.79;93.02
77311;BME280;66371;52.714;5.074;2023-04-24T17:58:52;100937.94;;;7.77;92.85
77311;BME280;66371;52.714;5.074;2023-04-24T18:01:18;100941.97;;;7.71;92.85
77311;BME280;66371;52.714;5.074;2023-04-24T18:03:44;100943.81;;;7.71;93.66
77311;BME280;66371;52.714;5.074;2023-04-24T18:06:12;100945.91;;;7.77;93.61
77311;BME280;66371;52.714;5.074;2023-04-24T18:08:41;100949.41;;;7.68;93.07
77311;BME280;66371;52.714;5.074;2023-04-24T18:11:07;100957.41;;;7.68;91.87
77311;BME280;66371;52.714;5.074;2023-04-24T18:13:32;100945.47;;;7.62;93.33
77311;BME280;66371;52.714;5.074;2023-04-24T18:15:58;100951.19;;;7.58;92.93
77311;BME280;66371;52.714;5.074;2023-04-24T18:18:24;100954.84;;;7.57;93.54
77311;BME280;66371;52.714;5.074;2023-04-24T18:20:49;100961.72;;;7.59;93.26
77311;BME280;66371;52.714;5.074;2023-04-24T18:23:15;100956.25;;;7.61;93.25
77311;BME280;66371;52.714;5.074;2023-04-24T18:25:40;100961.31;;;7.54;93.39
77311;BME280;66371;52.714;5.074;2023-04-24T18:28:06;100967.56;;;7.53;93.93
77311;BME280;66371;52.714;5.074;2023-04-24T18:30:31;100972.22;;;7.51;95.33
77311;BME280;66371;52.714;5.074;2023-04-24T18:32:58;100980.75;;;7.55;95.38
77311;BME280;66371;52.714;5.074;2023-04-24T18:35:24;100977.91;;;7.47;96.23
77311;BME280;66371;52.714;5.074;2023-04-24T18:37:50;100982.56;;;7.45;96.26
77311;BME280;66371;52.714;5.074;2023-04-24T18:40:16;100974.72;;;7.43;96.30
77311;BME280;66371;52.714;5.074;2023-04-24T18:42:41;100985.75;;;7.39;95.31
77311;BME280;66371;52.714;5.074;2023-04-24T18:45:09;100988.13;;;7.32;95.89
77311;BME280;66371;52.714;5.074;2023-04-24T18:47:35;100987.66;;;7.27;96.69
77311;BME280;66371;52.714;5.074;2023-04-24T18:50:02;100985.88;;;7.28;97.27
77311;BME280;66371;52.714;5.074;2023-04-24T18:54:46;100986.41;;;7.22;97.21
77311;BME280;66371;52.714;5.074;2023-04-24T18:57:13;101002.41;;;7.31;97.09
77311;BME280;66371;52.714;5.074;2023-04-24T18:59:39;100995.25;;;7.32;97.56
77311;BME280;66371;52.714;5.074;2023-04-24T19:02:05;101000.56;;;7.32;96.93
77311;BME280;66371;52.714;5.074;2023-04-24T19:04:31;100998.88;;;7.31;97.51
77311;BME280;66371;52.714;5.074;2023-04-24T19:06:56;101007.59;;;7.33;97.35
77311;BME280;66371;52.714;5.074;2023-04-24T19:09:22;101016.78;;;7.29;97.84
77311;BME280;66371;52.714;5.074;2023-04-24T19:11:48;101023.41;;;7.34;97.58
77311;BME280;66371;52.714;5.074;2023-04-24T19:14:13;101014.25;;;7.27;97.14
77311;BME280;66371;52.714;5.074;2023-04-24T19:16:40;101020.97;;;7.22;97.60
77311;BME280;66371;52.714;5.074;2023-04-24T19:19:06;101029.09;;;7.20;97.49
77311;BME280;66371;52.714;5.074;2023-04-24T19:21:38;101023.75;;;7.20;96.92
77311;BME280;66371;52.714;5.074;2023-04-24T19:24:04;101030.75;;;7.21;96.91
77311;BME280;66371;52.714;5.074;2023-04-24T19:26:30;101036.06;;;7.21;96.93
77311;BME280;66371;52.714;5.074;2023-04-24T19:28:58;101038.31;;;7.26;96.91
77311;BME280;66371;52.714;5.074;2023-04-24T19:31:24;101045.63;;;7.24;96.41
77311;BME280;66371;52.714;5.074;2023-04-24T19:33:50;101040.84;;;7.18;97.02
77311;BME280;66371;52.714;5.074;2023-04-24T19:36:15;101043.22;;;7.21;96.84
77311;BME280;66371;52.714;5.074;2023-04-24T19:38:44;101054.81;;;7.19;95.88
77311;BME280;66371;52.714;5.074;2023-04-24T19:41:15;101055.66;;;7.20;95.54
77311;BME280;66371;52.714;5.074;2023-04-24T19:43:41;101054.81;;;7.19;96.68
77311;BME280;66371;52.714;5.074;2023-04-24T19:46:07;101062.75;;;7.10;96.43
77311;BME280;66371;52.714;5.074;2023-04-24T19:48:32;101062.94;;;7.18;96.11
77311;BME280;66371;52.714;5.074;2023-04-24T19:50:58;101065.31;;;7.11;95.87
77311;BME280;66371;52.714;5.074;2023-04-24T19:53:24;101062.44;;;7.03;95.76
77311;BME280;66371;52.714;5.074;2023-04-24T19:55:49;101066.66;;;7.06;95.07
77311;BME280;66371;52.714;5.074;2023-04-24T19:58:15;101072.56;;;7.09;94.96
77311;BME280;66371;52.714;5.074;2023-04-24T20:00:41;101073.78;;;7.05;94.58
77311;BME280;66371;52.714;5.074;2023-04-24T20:03:06;101087.47;;;7.01;94.98
77311;BME280;66371;52.714;5.074;2023-04-24T20:05:32;101084.94;;;6.99;94.23
77311;BME280;66371;52.714;5.074;2023-04-24T20:07:58;101098.06;;;6.91;94.59
77311;BME280;66371;52.714;5.074;2023-04-24T20:10:23;101096.88;;;6.84;94.63
77311;BME280;66371;52.714;5.074;2023-04-24T20:12:49;101093.78;;;6.79;94.44
77311;BME280;66371;52.714;5.074;2023-04-24T20:15:15;101091.94;;;6.80;94.42
77311;BME280;66371;52.714;5.074;2023-04-24T20:17:41;101101.03;;;6.77;94.57
77311;BME280;66371;52.714;5.074;2023-04-24T20:20:07;101100.19;;;6.77;95.38
77311;BME280;66371;52.714;5.074;2023-04-24T20:22:34;101106.63;;;6.74;96.32
77311;BME280;66371;52.714;5.074;2023-04-24T20:27:30;101119.50;;;6.79;96.47
77311;BME280;66371;52.714;5.074;2023-04-24T20:29:56;101120.03;;;6.73;96.23
77311;BME280;66371;52.714;5.074;2023-04-24T20:32:23;101127.28;;;6.71;94.17
77311;BME280;66371;52.714;5.074;2023-04-24T20:34:49;101125.72;;;6.68;94.03
77311;BME280;66371;52.714;5.074;2023-04-24T20:37:17;101130.31;;;6.66;93.56
77311;BME280;66371;52.714;5.074;2023-04-24T20:39:46;101127.44;;;6.58;93.16
77311;BME280;66371;52.714;5.074;2023-04-24T20:42:13;101125.78;;;6.57;93.24
77311;BME280;66371;52.714;5.074;2023-04-24T20:44:41;101123.72;;;6.61;93.01
77311;BME280;66371;52.714;5.074;2023-04-24T20:47:06;101134.47;;;6.59;93.46
77311;BME280;66371;52.714;5.074;2023-04-24T20:49:32;101122.59;;;6.63;93.10
77311;BME280;66371;52.714;5.074;2023-04-24T20:51:57;101144.31;;;6.68;93.28
77311;BME280;66371;52.714;5.074;2023-04-24T20:54:24;101137.56;;;6.64;92.71
77311;BME280;66371;52.714;5.074;2023-04-24T20:56:49;101140.34;;;6.63;90.82
77311;BME280;66371;52.714;5.074;2023-04-24T20:59:15;101136.88;;;6.62;91.23
77311;BME280;66371;52.714;5.074;2023-04-24T21:01:40;101146.75;;;6.60;91.47
77311;BME280;66371;52.714;5.074;2023-04-24T21:04:08;101150.41;;;6.59;89.85
77311;BME280;66371;52.714;5.074;2023-04-24T21:06:36;101145.09;;;6.59;90.45
77311;BME280;66371;52.714;5.074;2023-04-24T21:09:02;101151.03;;;6.52;91.32
77311;BME280;66371;52.714;5.074;2023-04-24T21:11:28;101145.84;;;6.50;89.60
77311;BME280;66371;52.714;5.074;2023-04-24T21:13:55;101148.28;;;6.42;89.16
77311;BME280;66371;52.714;5.074;2023-04-24T21:16:21;101143.59;;;6.35;89.73
